createdAt,value
2018-02-02T00:04:59.710Z,81.50
2018-02-02T00:11:03.153Z,81.40
2018-02-02T00:17:06.611Z,81.55
2018-02-02T00:23:10.073Z,81.91
2018-02-02T00:29:13.679Z,81.60
2018-02-02T00:35:17.401Z,81.07
2018-02-02T00:41:21.268Z,80.99
2018-02-02T00:47:24.734Z,81.16
2018-02-02T00:53:28.333Z,80.51
2018-02-02T00:59:32.549Z,80.48
2018-02-02T01:05:36.780Z,80.04
2018-02-02T01:11:40.242Z,79.58
2018-02-02T01:17:43.833Z,80.21
2018-02-02T01:23:47.334Z,79.56
2018-02-02T01:29:51.823Z,80.05
2018-02-02T01:35:55.707Z,79.91
2018-02-02T01:41:59.158Z,79.07
2018-02-02T01:48:20.975Z,78.90
2018-02-02T01:54:25.257Z,79.43
2018-02-02T02:00:28.737Z,79.62
2018-02-02T02:06:32.274Z,79.50
2018-02-02T02:12:36.639Z,79.64
2018-02-02T02:18:40.170Z,79.85
2018-02-02T02:24:43.707Z,79.87
2018-02-02T02:30:47.298Z,80.25
2018-02-02T02:36:51.991Z,80.42
2018-02-02T02:42:55.661Z,80.52
2018-02-02T02:48:59.902Z,80.47
2018-02-02T02:55:03.414Z,80.57
2018-02-02T03:01:06.963Z,80.70
2018-02-02T03:07:10.416Z,80.78
2018-02-02T03:19:24.093Z,80.33
2018-02-02T03:25:27.642Z,80.25
2018-02-02T03:31:31.139Z,79.81
2018-02-02T03:37:35.096Z,79.45
2018-02-02T03:43:38.550Z,79.29
2018-02-02T03:49:42.227Z,78.69
2018-02-02T03:55:45.689Z,78.81
2018-02-02T04:01:50.267Z,78.57
2018-02-02T04:07:54.066Z,78.30
2018-02-02T04:13:57.717Z,77.63
2018-02-02T04:20:01.285Z,77.98
2018-02-02T04:26:04.795Z,78.08
2018-02-02T04:32:08.452Z,78.18
2018-02-02T04:38:12.130Z,78.70
2018-02-02T04:44:16.354Z,78.84
2018-02-02T04:50:20.246Z,78.87
2018-02-02T04:56:24.283Z,79.76
2018-02-02T05:02:28.181Z,79.43
2018-02-02T05:08:32.569Z,79.25
2018-02-02T05:14:36.877Z,79.48
2018-02-02T05:20:40.383Z,79.01
2018-02-02T05:26:44.618Z,78.99
2018-02-02T05:32:48.087Z,78.72
2018-02-02T05:38:51.986Z,78.42
2018-02-02T05:44:55.554Z,78.60
2018-02-02T05:50:59.138Z,78.95
2018-02-02T05:57:02.675Z,78.70
2018-02-02T06:03:06.147Z,79.31
2018-02-02T06:09:09.601Z,78.93
2018-02-02T06:15:13.079Z,78.80
2018-02-02T06:21:16.775Z,78.87
2018-02-02T06:27:20.665Z,78.94
2018-02-02T06:33:24.453Z,78.64
2018-02-02T06:39:27.964Z,79.10
2018-02-02T06:45:31.473Z,78.56
2018-02-02T06:51:35.023Z,78.87
2018-02-02T06:57:39.245Z,78.62
2018-02-02T07:03:42.755Z,78.64
2018-02-02T07:09:46.373Z,78.68
2018-02-02T07:15:49.959Z,78.83
2018-02-02T07:21:54.165Z,78.94
2018-02-02T07:27:57.674Z,78.45
2018-02-02T07:34:01.269Z,78.95
2018-02-02T07:40:04.834Z,78.42
2018-02-02T07:46:09.095Z,78.54
2018-02-02T07:52:13.454Z,78.35
2018-02-02T07:58:16.908Z,78.99
2018-02-02T08:04:20.987Z,78.54
2018-02-02T08:10:24.533Z,78.39
2018-02-02T08:16:28.002Z,78.79
2018-02-02T08:22:32.216Z,79.04
2018-02-02T08:28:35.656Z,78.68
2018-02-02T08:34:39.101Z,79.25
2018-02-02T08:40:42.636Z,79.35
2018-02-02T08:46:46.073Z,79.11
2018-02-02T08:52:50.762Z,79.13
2018-02-02T08:58:54.678Z,79.11
2018-02-02T09:04:58.328Z,79.20
2018-02-02T09:11:01.865Z,78.97
2018-02-02T09:17:05.466Z,79.82
2018-02-02T09:23:09.027Z,79.54
2018-02-02T09:29:12.643Z,80.39
2018-02-02T09:35:16.089Z,80.15
2018-02-02T09:41:19.708Z,80.55
2018-02-02T09:47:24.173Z,80.50
2018-02-02T09:53:27.645Z,81.30
2018-02-02T09:59:31.887Z,81.17
2018-02-02T10:05:35.350Z,80.69
2018-02-02T10:11:38.882Z,81.06
2018-02-02T10:17:42.541Z,80.07
2018-02-02T10:23:46.039Z,79.89
2018-02-02T10:29:51.081Z,79.51
2018-02-02T10:35:54.673Z,80.38
2018-02-02T10:41:58.140Z,80.16
2018-02-02T10:48:02.368Z,79.99
2018-02-02T10:54:05.845Z,79.35
2018-02-02T11:00:09.320Z,79.71
2018-02-02T11:06:13.567Z,80.03
2018-02-02T11:12:17.117Z,80.09
2018-02-02T11:18:21.171Z,80.36
2018-02-02T11:24:25.121Z,80.54
2018-02-02T11:30:28.602Z,80.95
2018-02-02T11:36:32.091Z,82.23
2018-02-02T11:42:36.293Z,82.05
2018-02-02T11:48:40.548Z,81.66
2018-02-02T11:54:44.038Z,82.25
2018-02-02T12:00:47.494Z,82.33
2018-02-02T12:06:50.957Z,82.85
2018-02-02T12:12:54.429Z,82.41
2018-02-02T12:18:58.683Z,81.70
2018-02-02T12:31:48.376Z,82.47
2018-02-02T12:37:52.992Z,82.75
2018-02-02T12:43:56.578Z,83.21
2018-02-02T12:50:07.702Z,84.29
2018-02-02T12:56:11.358Z,83.15
2018-02-02T13:02:14.816Z,82.53
2018-02-02T13:08:18.445Z,82.30
2018-02-02T13:14:22.993Z,81.79
2018-02-02T13:21:30.584Z,81.46
2018-02-02T13:27:35.865Z,81.72
2018-02-02T13:33:40.342Z,81.68
2018-02-02T13:39:44.798Z,82.23
2018-02-02T13:45:49.260Z,82.45
2018-02-02T13:51:54.641Z,82.47
2018-02-02T13:57:59.886Z,83.04
2018-02-02T14:04:04.535Z,82.57
2018-02-02T14:10:09.024Z,83.06
2018-02-02T14:16:13.616Z,81.98
2018-02-02T14:22:18.295Z,82.37
2018-02-02T14:28:24.201Z,82.15
2018-02-02T14:34:28.711Z,82.22
2018-02-02T14:40:33.353Z,81.87
2018-02-02T14:46:37.879Z,81.30
2018-02-02T14:52:42.348Z,81.65
2018-02-02T14:58:46.810Z,81.14
2018-02-02T15:04:51.500Z,81.09
2018-02-02T15:10:56.098Z,81.81
2018-02-02T15:17:00.574Z,82.21
2018-02-02T15:23:22.889Z,82.61
2018-02-02T15:29:27.573Z,82.84
2018-02-02T15:35:32.781Z,83.23
2018-02-02T15:41:38.003Z,83.33
2018-02-02T15:47:43.237Z,83.62
2018-02-02T15:53:47.729Z,83.85
2018-02-02T15:59:53.013Z,84.11
2018-02-02T16:05:57.560Z,84.49
2018-02-02T16:12:02.013Z,84.51
2018-02-02T16:18:06.573Z,84.74
2018-02-02T16:24:11.860Z,85.14
2018-02-02T16:30:17.448Z,85.37
2018-02-02T16:36:23.588Z,85.31
2018-02-02T16:42:28.874Z,85.33
2018-02-02T16:48:33.385Z,85.37
2018-02-02T16:54:37.930Z,85.74
2018-02-02T17:00:43.168Z,85.72
2018-02-02T17:06:47.635Z,85.92
2018-02-02T17:12:52.425Z,85.93
2018-02-02T17:18:57.253Z,86.10
2018-02-02T17:25:01.778Z,86.14
2018-02-02T17:31:06.286Z,86.08
2018-02-02T17:37:10.961Z,86.17
2018-02-02T17:43:15.491Z,85.97
2018-02-02T17:49:21.314Z,85.92
2018-02-02T17:55:26.206Z,86.19
2018-02-02T18:01:30.634Z,86.11
2018-02-02T18:07:35.216Z,87.14
2018-02-02T18:13:39.699Z,88.39
2018-02-02T18:19:44.358Z,88.67
2018-02-02T18:25:48.935Z,89.09
2018-02-02T18:31:53.686Z,89.60
2018-02-02T18:37:58.314Z,89.91
2018-02-02T18:44:02.982Z,90.06
2018-02-02T18:50:07.481Z,90.16
2018-02-02T18:56:12.770Z,90.37
2018-02-02T19:02:17.265Z,90.17
2018-02-02T19:08:22.135Z,90.03
2018-02-02T19:14:27.549Z,89.82
2018-02-02T19:20:32.128Z,89.89
2018-02-02T19:26:36.725Z,89.99
2018-02-02T19:32:42.127Z,90.07
2018-02-02T19:38:47.607Z,90.12
2018-02-02T19:44:52.787Z,89.84
2018-02-02T19:50:57.521Z,89.81
2018-02-02T19:57:01.996Z,89.82
2018-02-02T20:03:06.443Z,89.76
2018-02-02T20:09:10.974Z,89.97
2018-02-02T20:15:17.006Z,89.82
2018-02-02T20:21:26.655Z,89.92
2018-02-02T20:27:31.177Z,89.99
2018-02-02T20:33:35.754Z,90.17
2018-02-02T20:39:40.355Z,90.13
2018-02-02T20:45:44.938Z,89.79
2018-02-02T20:51:49.744Z,89.76
2018-02-02T20:57:54.336Z,89.60
2018-02-02T21:03:59.594Z,89.69
2018-02-02T21:10:04.081Z,90.10
2018-02-02T21:16:09.354Z,90.37
2018-02-02T21:22:13.831Z,90.65
2018-02-02T21:28:18.336Z,90.58
2018-02-02T21:34:23.160Z,90.18
2018-02-02T21:40:27.634Z,89.93
2018-02-02T21:46:32.202Z,89.71
2018-02-02T21:52:36.685Z,89.65
2018-02-02T21:58:41.243Z,89.61
2018-02-02T22:04:46.765Z,89.32
2018-02-02T22:10:52.803Z,89.55
2018-02-02T22:16:57.357Z,89.92
2018-02-02T22:23:01.818Z,90.46
2018-02-02T22:29:06.417Z,91.07
2018-02-02T22:35:10.886Z,91.07
2018-02-02T22:41:15.624Z,90.92
2018-02-02T22:47:22.192Z,91.04
2018-02-02T22:53:27.455Z,90.82
2018-02-02T22:59:33.487Z,90.50
2018-02-02T23:05:38.774Z,89.80
2018-02-02T23:11:43.997Z,89.12
2018-02-02T23:17:48.632Z,88.38
2018-02-02T23:23:55.263Z,87.82
2018-02-02T23:30:01.258Z,88.13
2018-02-02T23:36:05.729Z,88.28
2018-02-02T23:42:10.335Z,88.91
2018-02-02T23:48:15.014Z,88.88
2018-02-02T23:54:20.230Z,89.03
